Time;durP1;ratioP1;P1;durP2;ratioP2;P2;SDS_P1;SDS_P2;PMS_P1;PMS_P2;Temp;Humidity;BMP_temperature;BMP_pressure;BME280_temperature;BME280_humidity;BME280_pressure;Samples;Min_cycle;Max_cycle;Signal;HPM_P1;HPM_P2
2023/09/29 00:00:31;;;;;;;19.70;12.80;;;;;;;15.70;64.64;100359.10;106745;1266;70697;-39
2023/09/29 00:02:59;;;;;;;18.30;13.30;;;;;;;15.65;64.74;100355.91;106715;1266;60105;-39
2023/09/29 00:05:27;;;;;;;16.80;12.70;;;;;;;15.59;65.01;100354.73;106738;1266;59938;-39
2023/09/29 00:07:55;;;;;;;18.50;13.40;;;;;;;15.55;65.12;100353.50;106766;1266;72191;-39
2023/09/29 00:10:23;;;;;;;14.80;12.10;;;;;;;15.50;65.27;100353.79;106750;1266;67588;-39
2023/09/29 00:12:51;;;;;;;16.30;11.10;;;;;;;15.49;65.40;100352.06;106781;1266;72920;-38
2023/09/29 00:15:19;;;;;;;15.70;10.30;;;;;;;15.51;65.38;100353.19;106812;1264;60055;-38
2023/09/29 00:17:46;;;;;;;11.60;9.90;;;;;;;15.47;65.71;100349.05;106807;1265;60112;-38
2023/09/29 00:20:23;;;;;;;15.30;11.20;;;;;;;15.42;66.18;100351.17;106782;1267;73146;-38
2023/09/29 00:22:53;;;;;;;14.60;11.30;;;;;;;15.39;66.61;100350.42;106763;1264;67613;-38
2023/09/29 00:25:21;;;;;;;14.50;11.10;;;;;;;15.35;66.62;100352.01;106786;1266;70415;-38
2023/09/29 00:27:48;;;;;;;16.90;12.30;;;;;;;15.31;66.61;100348.02;106735;1267;60118;-39
2023/09/29 00:30:16;;;;;;;14.60;12.20;;;;;;;15.27;66.70;100348.43;106752;1267;60042;-39
2023/09/29 00:32:50;;;;;;;15.90;12.00;;;;;;;15.22;66.77;100347.52;106773;1265;72486;-38
2023/09/29 00:37:53;;;;;;;17.30;11.00;;;;;;;15.31;66.91;100349.59;106723;1267;71704;-39
2023/09/29 00:40:22;;;;;;;14.60;10.90;;;;;;;15.30;66.87;100349.98;106809;1266;59781;-39
2023/09/29 00:42:49;;;;;;;16.10;11.90;;;;;;;15.27;66.98;100352.81;106762;1267;59660;-39
2023/09/29 00:45:20;;;;;;;15.20;12.10;;;;;;;15.25;67.31;100347.40;106840;1263;73059;-39
2023/09/29 00:47:49;;;;;;;17.50;12.80;;;;;;;15.22;67.24;100344.79;106808;1263;67588;-39
2023/09/29 00:50:18;;;;;;;17.00;11.90;;;;;;;15.20;67.03;100349.51;106900;1262;71846;-39
2023/09/29 00:52:47;;;;;;;16.60;12.30;;;;;;;15.17;67.03;100347.36;106844;1263;59689;-39
2023/09/29 00:55:16;;;;;;;18.10;12.50;;;;;;;15.13;67.01;100347.54;106915;1263;59771;-39
2023/09/29 00:57:47;;;;;;;14.20;11.10;;;;;;;15.10;66.91;100345.67;106839;1263;73955;-39
2023/09/29 01:00:29;;;;;;;15.20;10.80;;;;;;;15.12;66.91;100343.06;106891;1263;66362;-39
2023/09/29 01:02:58;;;;;;;16.80;11.50;;;;;;;15.16;66.78;100344.98;106821;1263;72709;-39
2023/09/29 01:05:26;;;;;;;15.80;12.00;;;;;;;15.15;67.14;100346.31;106827;1263;60199;-39
2023/09/29 01:07:54;;;;;;;15.10;12.30;;;;;;;15.13;67.16;100347.14;106838;1263;60297;-39
2023/09/29 01:10:24;;;;;;;19.30;12.80;;;;;;;15.12;67.20;100347.03;106792;1262;73062;-39
2023/09/29 01:12:53;;;;;;;17.40;13.10;;;;;;;15.10;67.15;100351.38;106939;1263;67618;-39
2023/09/29 01:15:21;;;;;;;18.80;13.40;;;;;;;15.07;67.28;100353.52;106895;1266;72713;-39
2023/09/29 01:17:49;;;;;;;21.10;13.50;;;;;;;15.05;67.34;100350.59;106864;1264;60106;-39
2023/09/29 01:20:29;;;;;;;17.60;12.40;;;;;;;15.01;67.39;100349.03;106839;1263;60045;-39
2023/09/29 01:23:00;;;;;;;18.30;12.20;;;;;;;15.04;67.09;100351.90;106832;1263;73060;-39
2023/09/29 01:25:27;;;;;;;16.20;12.30;;;;;;;15.06;66.88;100349.27;106881;1263;66636;-39
2023/09/29 01:27:56;;;;;;;19.00;12.70;;;;;;;15.04;66.77;100349.10;106839;1263;72689;-39
2023/09/29 01:30:25;;;;;;;19.80;13.20;;;;;;;15.01;66.69;100349.20;106831;1263;59809;-39
2023/09/29 01:32:56;;;;;;;22.20;13.70;;;;;;;14.99;66.44;100348.47;106854;1266;60026;-39
2023/09/29 01:35:24;;;;;;;20.60;13.50;;;;;;;14.95;66.24;100346.45;106844;1263;72868;-39
2023/09/29 01:37:55;;;;;;;17.80;13.30;;;;;;;14.93;66.10;100353.11;106829;1266;67621;-39
2023/09/29 01:40:23;;;;;;;23.40;14.40;;;;;;;14.88;66.05;100352.17;106852;1263;71401;-39
2023/09/29 01:42:51;;;;;;;18.40;13.30;;;;;;;14.83;66.09;100349.83;106853;1263;60031;-39
2023/09/29 01:45:19;;;;;;;18.70;13.50;;;;;;;14.77;66.20;100347.84;106867;1261;59995;-39
2023/09/29 01:47:47;;;;;;;17.20;12.60;;;;;;;14.78;66.00;100344.20;106858;1263;72120;-39
2023/09/29 01:50:17;;;;;;;19.70;13.30;;;;;;;14.81;65.97;100343.55;106872;1262;67685;-39
2023/09/29 01:52:46;;;;;;;19.60;13.70;;;;;;;14.80;65.97;100347.52;106906;1266;73054;-39
2023/09/29 01:55:14;;;;;;;19.20;13.70;;;;;;;14.78;66.06;100349.17;106835;1263;60585;-39
2023/09/29 01:57:43;;;;;;;19.80;13.80;;;;;;;14.76;66.05;100351.88;106825;1263;59486;-39
2023/09/29 02:00:15;;;;;;;19.20;13.70;;;;;;;14.75;66.21;100354.52;106912;1261;71767;-39
2023/09/29 02:02:46;;;;;;;20.10;13.50;;;;;;;14.72;66.29;100353.38;106920;1267;67924;-39
2023/09/29 02:05:16;;;;;;;18.10;13.30;;;;;;;14.69;66.51;100352.30;106926;1263;71414;-39
2023/09/29 02:07:44;;;;;;;16.10;12.40;;;;;;;14.64;66.69;100353.30;106920;1261;60119;-39
2023/09/29 02:10:12;;;;;;;17.20;12.00;;;;;;;14.66;66.68;100353.98;107048;1257;60080;-39
2023/09/29 02:12:53;;;;;;;15.60;11.80;;;;;;;14.70;66.63;100350.98;107208;1257;71770;-39
2023/09/29 02:15:21;;;;;;;15.40;11.90;;;;;;;14.68;66.87;100349.30;107076;1257;67563;-39
2023/09/29 02:17:49;;;;;;;17.20;12.50;;;;;;;14.64;67.00;100348.86;107253;1257;71384;-39
2023/09/29 02:20:28;;;;;;;16.90;12.50;;;;;;;14.62;67.06;100347.97;107320;1257;60501;-39
2023/09/29 02:22:58;;;;;;;14.50;12.30;;;;;;;14.60;66.93;100350.49;107281;1257;61141;-39
2023/09/29 02:25:26;;;;;;;16.70;11.30;;;;;;;14.56;67.25;100347.93;107181;1257;73867;-39
2023/09/29 02:27:57;;;;;;;17.80;12.80;;;;;;;14.53;67.64;100350.76;107258;1257;67807;-39
2023/09/29 02:30:25;;;;;;;14.40;11.30;;;;;;;14.50;67.69;100346.33;107230;1257;73058;-39
2023/09/29 02:32:53;;;;;;;20.90;12.30;;;;;;;14.53;67.54;100346.02;107273;1258;61624;-39
2023/09/29 02:35:22;;;;;;;23.40;13.30;;;;;;;14.57;67.34;100345.21;107224;1257;60488;-39
2023/09/29 02:37:49;;;;;;;19.70;13.30;;;;;;;14.56;67.33;100345.27;107165;1257;72970;-39
2023/09/29 02:40:17;;;;;;;19.40;13.60;;;;;;;14.54;67.41;100348.75;107247;1257;67622;-39
2023/09/29 02:42:44;;;;;;;18.10;13.10;;;;;;;14.53;67.28;100349.75;107193;1258;71438;-39
2023/09/29 02:45:13;;;;;;;18.10;12.40;;;;;;;14.51;67.46;100349.09;107180;1261;60219;-39
2023/09/29 02:47:42;;;;;;;18.50;13.20;;;;;;;14.48;67.43;100354.10;107203;1257;60341;-39
2023/09/29 02:50:11;;;;;;;15.40;13.30;;;;;;;14.45;67.45;100353.09;107280;1257;73841;-39
2023/09/29 02:52:40;;;;;;;21.80;13.30;;;;;;;14.42;67.40;100349.92;107117;1257;67767;-39
2023/09/29 02:55:15;;;;;;;17.20;12.80;;;;;;;14.44;67.23;100354.48;107249;1256;72685;-39
2023/09/29 02:57:44;;;;;;;18.00;12.50;;;;;;;14.48;67.07;100351.75;107089;1257;60315;-39
2023/09/29 03:00:18;;;;;;;19.70;13.50;;;;;;;14.46;67.21;100353.36;107319;1257;60437;-39
2023/09/29 03:02:48;;;;;;;17.40;13.70;;;;;;;14.44;67.33;100352.39;107309;1257;72988;-39
2023/09/29 03:05:18;;;;;;;18.90;14.30;;;;;;;14.42;67.36;100349.85;107227;1258;66320;-38
2023/09/29 03:07:45;;;;;;;17.60;13.60;;;;;;;14.39;67.49;100349.55;107242;1263;72659;-38
2023/09/29 03:10:14;;;;;;;19.90;13.60;;;;;;;14.34;67.44;100349.13;107063;1257;60418;-39
2023/09/29 03:12:43;;;;;;;15.20;12.90;;;;;;;14.31;67.43;100349.61;107241;1257;60443;-39
2023/09/29 03:15:17;;;;;;;16.60;12.00;;;;;;;14.28;67.55;100350.71;107235;1257;73864;-39
2023/09/29 03:17:45;;;;;;;15.30;11.40;;;;;;;14.31;67.97;100346.27;107487;1258;67912;-39
2023/09/29 03:20:14;;;;;;;17.60;12.20;;;;;;;14.38;68.20;100344.69;107570;1258;72639;-39
2023/09/29 03:22:46;;;;;;;18.70;12.50;;;;;;;14.37;68.51;100341.34;107527;1259;60103;-38
2023/09/29 03:25:16;;;;;;;20.90;13.00;;;;;;;14.35;68.59;100344.72;107631;1253;60550;-38
2023/09/29 03:27:45;;;;;;;17.30;12.80;;;;;;;14.33;68.52;100342.63;107600;1254;73869;-38
2023/09/29 03:30:13;;;;;;;15.70;12.90;;;;;;;14.32;68.59;100340.21;107614;1254;67941;-38
2023/09/29 03:32:42;;;;;;;20.30;14.00;;;;;;;14.30;68.53;100342.82;107586;1254;72735;-38
2023/09/29 03:35:09;;;;;;;21.00;14.20;;;;;;;14.28;68.43;100348.15;107523;1258;60568;-38
2023/09/29 03:37:38;;;;;;;15.80;12.10;;;;;;;14.24;68.50;100349.23;107637;1254;60018;-38
2023/09/29 03:40:10;;;;;;;16.30;12.10;;;;;;;14.27;68.25;100345.70;107583;1254;73960;-38
2023/09/29 03:42:41;;;;;;;15.30;11.90;;;;;;;14.29;68.16;100347.01;107518;1254;67717;-38
2023/09/29 03:45:11;;;;;;;19.10;12.40;;;;;;;14.29;68.13;100349.80;107538;1259;72635;-38
2023/09/29 03:47:39;;;;;;;15.90;12.90;;;;;;;14.28;68.11;100348.15;107668;1257;60105;-38
2023/09/29 03:50:10;;;;;;;18.60;13.80;;;;;;;14.26;68.17;100350.75;107609;1254;60290;-38
2023/09/29 03:52:39;;;;;;;18.60;12.90;;;;;;;14.24;68.10;100345.11;107732;1256;74036;-38
2023/09/29 03:55:09;;;;;;;17.60;13.10;;;;;;;14.22;68.13;100346.86;107689;1257;67860;-38
2023/09/29 03:57:38;;;;;;;17.90;13.40;;;;;;;14.19;67.98;100342.74;107516;1260;72689;-38
2023/09/29 04:00:10;;;;;;;17.40;12.20;;;;;;;14.16;68.07;100345.58;107595;1254;61681;-38
2023/09/29 04:02:42;;;;;;;16.70;11.80;;;;;;;14.20;68.05;100343.54;107592;1254;60453;-38
2023/09/29 04:05:10;;;;;;;15.80;12.10;;;;;;;14.23;68.02;100345.17;107654;1254;73838;-38
2023/09/29 04:07:39;;;;;;;17.60;12.30;;;;;;;14.23;68.14;100345.56;107557;1253;67873;-39
2023/09/29 04:10:09;;;;;;;18.10;13.00;;;;;;;14.21;68.29;100344.12;107614;1257;73362;-39
2023/09/29 04:12:45;;;;;;;18.30;13.00;;;;;;;14.18;68.37;100345.86;107630;1256;60561;-39
2023/09/29 04:15:15;;;;;;;14.70;12.30;;;;;;;14.17;68.28;100345.04;107457;1259;60453;-39
2023/09/29 04:17:43;;;;;;;17.60;13.40;;;;;;;14.14;68.25;100344.81;107617;1254;71420;-38
2023/09/29 04:20:11;;;;;;;17.10;11.90;;;;;;;14.10;68.13;100340.54;107496;1259;67695;-38
2023/09/29 04:22:39;;;;;;;16.30;12.10;;;;;;;14.07;68.34;100340.88;107588;1254;72698;-39
2023/09/29 04:25:09;;;;;;;16.00;11.60;;;;;;;14.10;68.32;100340.77;107482;1254;60387;-38
2023/09/29 04:27:38;;;;;;;;;;;;;;;14.14;68.17;100343.50;107540;1254;60433;-38
2023/09/29 04:30:07;;;;;;;25.30;13.10;;;;;;;14.12;68.25;100342.68;107684;1254;73266;-39
2023/09/29 04:32:35;;;;;;;18.30;13.50;;;;;;;14.10;68.49;100343.02;107689;1257;67558;-39
2023/09/29 04:35:04;;;;;;;17.50;13.70;;;;;;;14.10;68.65;100346.92;107489;1254;71410;-38
2023/09/29 04:37:32;;;;;;;16.90;13.00;;;;;;;14.11;68.73;100346.64;107550;1255;60408;-38
2023/09/29 04:39:59;;;;;;;17.80;13.50;;;;;;;14.11;68.93;100347.03;107506;1254;60322;-38
2023/09/29 04:42:27;;;;;;;18.10;12.40;;;;;;;14.12;69.13;100348.46;107595;1256;73850;-38
2023/09/29 04:44:54;;;;;;;16.20;12.30;;;;;;;14.17;69.19;100351.14;107535;1254;66795;-38
2023/09/29 04:47:22;;;;;;;16.90;12.80;;;;;;;14.24;69.17;100348.46;107641;1254;72768;-38
2023/09/29 04:49:50;;;;;;;16.80;12.90;;;;;;;14.27;69.08;100346.98;107573;1254;60323;-38
2023/09/29 04:52:18;;;;;;;17.60;13.30;;;;;;;14.30;69.15;100345.14;107756;1254;60299;-38
2023/09/29 04:54:46;;;;;;;16.00;13.30;;;;;;;14.30;69.35;100343.21;107548;1253;72875;-38
2023/09/29 04:57:14;;;;;;;21.00;13.80;;;;;;;14.34;69.63;100344.30;107559;1259;66284;-38
2023/09/29 04:59:41;;;;;;;18.60;14.40;;;;;;;14.37;69.96;100344.22;107672;1258;72658;-39
2023/09/29 05:02:09;;;;;;;15.60;12.50;;;;;;;14.41;70.13;100348.10;107510;1260;61743;-38
2023/09/29 05:04:37;;;;;;;16.70;12.30;;;;;;;14.50;70.09;100349.99;107595;1253;60360;-38
2023/09/29 05:07:04;;;;;;;18.40;13.40;;;;;;;14.59;70.04;100349.71;107618;1254;73880;-38
2023/09/29 05:09:32;;;;;;;17.50;14.10;;;;;;;14.65;69.93;100352.76;107496;1254;66743;-39
2023/09/29 05:11:59;;;;;;;21.30;13.40;;;;;;;14.69;69.92;100354.88;107487;1258;72655;-38
2023/09/29 05:14:27;;;;;;;18.80;13.50;;;;;;;14.74;69.99;100353.17;107613;1254;60281;-39
2023/09/29 05:16:54;;;;;;;22.20;14.10;;;;;;;14.78;69.83;100353.41;107602;1254;60521;-38
2023/09/29 05:19:22;;;;;;;18.80;13.10;;;;;;;14.83;69.67;100353.01;107636;1254;73866;-38
2023/09/29 05:21:50;;;;;;;17.10;13.60;;;;;;;14.88;69.50;100356.15;107622;1260;68042;-39
2023/09/29 05:24:17;;;;;;;17.00;12.30;;;;;;;14.97;69.53;100353.49;107622;1257;71840;-38
2023/09/29 05:26:45;;;;;;;21.50;13.50;;;;;;;15.09;69.19;100359.86;107601;1255;60546;-39
2023/09/29 05:29:12;;;;;;;19.60;13.50;;;;;;;15.16;69.21;100352.89;107525;1260;59254;-39
2023/09/29 05:31:40;;;;;;;19.30;14.30;;;;;;;15.23;69.10;100357.44;107599;1254;73835;-39
2023/09/29 05:34:08;;;;;;;21.00;13.30;;;;;;;15.31;69.18;100355.84;107497;1254;67891;-39
2023/09/29 05:36:36;;;;;;;17.30;14.50;;;;;;;15.38;69.51;100353.84;107739;1256;72692;-39
2023/09/29 05:39:04;;;;;;;20.70;13.20;;;;;;;15.44;69.68;100354.17;107473;1260;61700;-39
2023/09/29 05:41:31;;;;;;;20.10;13.00;;;;;;;15.57;69.68;100354.93;107506;1253;60430;-38
2023/09/29 05:44:00;;;;;;;20.30;13.70;;;;;;;15.72;69.71;100355.86;107609;1254;73892;-38
2023/09/29 05:46:28;;;;;;;21.20;14.10;;;;;;;15.82;69.94;100353.48;107493;1254;67574;-39
2023/09/29 05:48:56;;;;;;;22.10;14.00;;;;;;;15.91;70.14;100354.01;107683;1253;72671;-38
2023/09/29 05:51:24;;;;;;;19.10;13.90;;;;;;;16.01;70.24;100353.52;107594;1257;60360;-38
2023/09/29 05:53:52;;;;;;;18.00;14.30;;;;;;;16.12;70.21;100352.25;107596;1254;60485;-38
2023/09/29 05:56:20;;;;;;;21.60;13.40;;;;;;;16.24;69.86;100355.20;107559;1254;73891;-38
2023/09/29 05:58:48;;;;;;;22.40;12.90;;;;;;;16.41;69.34;100351.48;107596;1254;67661;-39
2023/09/29 06:01:16;;;;;;;16.70;12.80;;;;;;;16.56;68.75;100347.75;107478;1254;72682;-38
2023/09/29 06:03:44;;;;;;;17.70;12.80;;;;;;;16.69;68.33;100347.27;107644;1254;60414;-39
2023/09/29 06:06:12;;;;;;;18.60;13.10;;;;;;;16.82;67.80;100347.80;107609;1254;60494;-39
2023/09/29 06:08:40;;;;;;;19.50;13.20;;;;;;;16.94;66.79;100349.94;107598;1254;73848;-39
2023/09/29 06:11:11;;;;;;;18.00;12.70;;;;;;;17.06;66.23;100350.35;107498;1254;67735;-38
2023/09/29 06:13:39;;;;;;;18.60;13.70;;;;;;;17.17;65.72;100350.76;107611;1253;72042;-39
2023/09/29 06:16:06;;;;;;;20.10;12.90;;;;;;;17.28;65.59;100347.40;107618;1254;60074;-39
2023/09/29 06:18:34;;;;;;;20.60;13.40;;;;;;;17.38;65.20;100347.23;107650;1254;60412;-39
2023/09/29 06:21:03;;;;;;;17.60;13.10;;;;;;;17.48;64.98;100352.00;107577;1254;73872;-39
2023/09/29 06:23:31;;;;;;;20.90;13.40;;;;;;;17.58;64.53;100353.09;107526;1254;66426;-39
2023/09/29 06:25:59;;;;;;;19.00;12.40;;;;;;;17.67;63.81;100349.89;107562;1254;73248;-39
2023/09/29 06:28:27;;;;;;;19.70;12.80;;;;;;;17.76;63.46;100353.00;107389;1253;60425;-39
2023/09/29 06:30:57;;;;;;;18.80;11.80;;;;;;;17.87;62.98;100354.45;107492;1253;60441;-39
2023/09/29 06:33:28;;;;;;;14.80;10.80;;;;;;;18.02;62.13;100356.64;107509;1254;74867;-39
2023/09/29 06:35:56;;;;;;;14.80;11.30;;;;;;;18.18;61.54;100357.49;107481;1254;67691;-38
2023/09/29 06:38:23;;;;;;;15.30;11.00;;;;;;;18.30;60.75;100359.10;107594;1254;72639;-38
2023/09/29 06:40:51;;;;;;;16.00;10.70;;;;;;;18.41;60.48;100364.41;107584;1254;60651;-39
2023/09/29 06:43:19;;;;;;;16.10;11.60;;;;;;;18.52;59.63;100362.48;107500;1254;60294;-38
2023/09/29 06:45:46;;;;;;;16.90;11.40;;;;;;;18.62;59.05;100364.09;107502;1259;72576;-39
2023/09/29 06:48:17;;;;;;;19.70;11.00;;;;;;;18.72;58.47;100364.59;107415;1254;67605;-39
2023/09/29 06:50:47;;;;;;;16.80;11.40;;;;;;;18.80;58.50;100364.91;107490;1254;73892;-39
2023/09/29 06:53:15;;;;;;;31.20;11.70;;;;;;;18.83;58.50;100356.44;107471;1254;61036;-40
2023/09/29 06:55:42;;;;;;;16.20;11.70;;;;;;;18.93;58.09;100362.03;107475;1254;60469;-40
2023/09/29 06:58:10;;;;;;;21.80;12.70;;;;;;;19.00;57.74;100360.70;107456;1255;73932;-40
2023/09/29 07:00:38;;;;;;;15.40;11.30;;;;;;;19.07;57.67;100358.51;107464;1254;67633;-40
2023/09/29 07:03:12;;;;;;;14.20;11.60;;;;;;;19.14;57.84;100361.48;107415;1254;72692;-40
2023/09/29 07:05:40;;;;;;;21.10;12.60;;;;;;;19.21;57.88;100364.63;107462;1254;60357;-40
2023/09/29 07:08:08;;;;;;;16.20;11.90;;;;;;;19.28;57.44;100362.19;107450;1254;60559;-40
2023/09/29 07:10:35;;;;;;;16.30;11.50;;;;;;;19.35;57.21;100359.99;107450;1254;73814;-40
2023/09/29 07:13:04;;;;;;;15.00;11.60;;;;;;;19.45;57.00;100361.58;107517;1254;66314;-40
2023/09/29 07:15:32;;;;;;;17.80;12.20;;;;;;;19.54;56.76;100358.20;107529;1254;71488;-40
2023/09/29 07:18:00;;;;;;;17.30;11.20;;;;;;;19.64;56.50;100355.89;107503;1254;60616;-40
2023/09/29 07:20:30;;;;;;;14.60;11.50;;;;;;;19.74;55.16;100353.05;107498;1254;60423;-40
2023/09/29 07:22:58;;;;;;;;;;;;;;;19.85;54.73;100351.75;107521;1254;73879;-40
2023/09/29 07:25:25;;;;;;;12.70;10.10;;;;;;;19.96;55.13;100352.19;107629;1254;67590;-40
2023/09/29 07:27:53;;;;;;;13.80;10.20;;;;;;;20.07;54.05;100354.97;107466;1254;72917;-40
2023/09/29 07:30:20;;;;;;;15.70;10.10;;;;;;;20.17;53.23;100354.15;107502;1255;60423;-40
2023/09/29 07:32:48;;;;;;;16.00;10.00;;;;;;;20.27;52.92;100355.84;107507;1254;60415;-40
2023/09/29 07:35:16;;;;;;;12.80;9.30;;;;;;;20.38;51.91;100356.99;107484;1258;73863;-40
2023/09/29 07:37:44;;;;;;;15.80;9.00;;;;;;;20.50;51.27;100355.91;107583;1255;67876;-40
2023/09/29 07:40:12;;;;;;;19.30;8.80;;;;;;;20.60;50.21;100358.28;107496;1254;72638;-40
2023/09/29 07:42:39;;;;;;;11.50;8.50;;;;;;;20.72;49.67;100358.45;107504;1254;60344;-40
2023/09/29 07:45:08;;;;;;;14.20;8.10;;;;;;;20.83;48.86;100361.52;107512;1253;60533;-41
2023/09/29 07:47:38;;;;;;;9.90;7.30;;;;;;;20.95;48.63;100361.29;107567;1260;73847;-41
2023/09/29 07:50:09;;;;;;;10.30;7.00;;;;;;;21.07;47.85;100360.09;107554;1254;67644;-41
2023/09/29 07:52:40;;;;;;;9.00;7.60;;;;;;;21.22;46.96;100355.82;107513;1254;70445;-41
2023/09/29 07:55:09;;;;;;;12.40;7.90;;;;;;;21.38;46.89;100354.73;107456;1259;60331;-40
2023/09/29 07:57:37;;;;;;;12.20;7.30;;;;;;;21.51;47.20;100353.98;107475;1254;62180;-41
2023/09/29 08:00:05;;;;;;;10.20;7.30;;;;;;;21.64;45.49;100355.73;107482;1253;73778;-41
2023/09/29 08:02:39;;;;;;;9.70;6.90;;;;;;;21.79;44.74;100347.54;107455;1254;67628;-40
2023/09/29 08:05:08;;;;;;;11.40;7.20;;;;;;;21.89;44.35;100341.03;107467;1254;72714;-41
2023/09/29 08:07:36;;;;;;;12.30;6.90;;;;;;;22.02;45.21;100344.14;107532;1255;60450;-41
2023/09/29 08:10:06;;;;;;;9.80;6.60;;;;;;;22.14;45.23;100344.23;107497;1253;60437;-40
2023/09/29 08:12:34;;;;;;;11.20;8.00;;;;;;;22.26;44.57;100342.50;107511;1254;73908;-41
2023/09/29 08:15:08;;;;;;;8.40;6.70;;;;;;;22.39;43.82;100341.29;107474;1254;67755;-41
2023/09/29 08:17:36;;;;;;;10.70;6.40;;;;;;;22.52;42.71;100341.19;107538;1254;72755;-41
2023/09/29 08:20:08;;;;;;;11.60;6.80;;;;;;;22.65;42.37;100339.90;107486;1254;60552;-40
2023/09/29 08:22:35;;;;;;;13.80;6.30;;;;;;;22.77;41.36;100338.96;107528;1254;60674;-40
2023/09/29 08:25:09;;;;;;;8.30;6.40;;;;;;;22.88;41.10;100335.55;107606;1254;74073;-40
2023/09/29 08:27:37;;;;;;;9.70;6.80;;;;;;;22.99;40.67;100330.95;107493;1254;68322;-40
2023/09/29 08:30:06;;;;;;;8.10;5.90;;;;;;;23.11;40.22;100329.89;107601;1253;72678;-40
2023/09/29 08:32:37;;;;;;;9.00;6.50;;;;;;;23.21;39.76;100330.34;107498;1258;60569;-40
2023/09/29 08:35:05;;;;;;;12.90;6.60;;;;;;;23.34;39.67;100327.43;107523;1260;60351;-40
2023/09/29 08:37:33;;;;;;;9.60;6.70;;;;;;;23.47;38.89;100328.88;107569;1254;73910;-40
2023/09/29 08:40:00;;;;;;;13.90;6.20;;;;;;;23.58;38.87;100329.63;107475;1259;67843;-41
2023/09/29 08:42:37;;;;;;;10.50;5.90;;;;;;;23.69;38.12;100329.02;107483;1254;72755;-40
2023/09/29 08:45:09;;;;;;;8.40;5.60;;;;;;;23.81;37.49;100329.11;107553;1254;60419;-41
2023/09/29 08:47:38;;;;;;;8.00;5.90;;;;;;;23.92;37.74;100331.17;107627;1254;60475;-41
2023/09/29 08:50:09;;;;;;;8.40;6.10;;;;;;;24.03;37.87;100323.99;107497;1254;74231;-41
2023/09/29 08:52:37;;;;;;;9.20;6.20;;;;;;;24.15;37.62;100325.58;107503;1254;67468;-41
2023/09/29 08:55:06;;;;;;;8.80;6.10;;;;;;;24.29;37.25;100329.58;107384;1254;73093;-41
2023/09/29 08:57:34;;;;;;;10.20;6.00;;;;;;;24.41;36.40;100329.38;107524;1254;60415;-41
2023/09/29 09:00:04;;;;;;;7.80;5.70;;;;;;;24.50;35.52;100329.65;107501;1254;61275;-41
2023/09/29 09:02:31;;;;;;;7.50;5.60;;;;;;;24.59;35.61;100327.92;107494;1254;73837;-41
2023/09/29 09:04:59;;;;;;;7.30;5.80;;;;;;;24.69;35.66;100334.13;107640;1254;67700;-41
2023/09/29 09:07:27;;;;;;;7.70;5.60;;;;;;;24.81;35.53;100333.77;107493;1254;73007;-41
2023/09/29 09:09:55;;;;;;;8.80;5.40;;;;;;;24.93;35.63;100330.03;107498;1259;60463;-41
2023/09/29 09:12:33;;;;;;;10.10;5.80;;;;;;;25.02;35.38;100330.44;107557;1254;60983;-41
2023/09/29 09:15:03;;;;;;;7.50;5.00;;;;;;;25.10;34.67;100331.17;107665;1254;74643;-41
2023/09/29 09:17:34;;;;;;;12.30;5.80;;;;;;;25.18;34.33;100330.90;107579;1254;67567;-41
2023/09/29 09:20:02;;;;;;;8.70;5.90;;;;;;;25.27;34.06;100331.15;107494;1254;72683;-41
2023/09/29 09:22:34;;;;;;;9.10;5.70;;;;;;;25.35;33.32;100327.06;107648;1253;62186;-41
2023/09/29 09:25:14;;;;;;;9.50;5.40;;;;;;;25.41;33.05;100327.83;107507;1254;60273;-41
2023/09/29 09:27:44;;;;;;;8.50;5.60;;;;;;;25.48;32.91;100325.74;107632;1253;73818;-41
2023/09/29 09:30:23;;;;;;;9.60;5.80;;;;;;;25.54;33.34;100322.74;107537;1252;67789;-41
2023/09/29 09:32:51;;;;;;;;;;;;;;;25.62;33.12;100324.30;107523;1254;72679;-41
2023/09/29 09:35:24;;;;;;;7.00;5.70;;;;;;;25.71;32.81;100323.58;107527;1253;60492;-41
2023/09/29 09:37:52;;;;;;;12.60;5.90;;;;;;;25.84;33.11;100326.46;107582;1258;60329;-41
2023/09/29 09:40:20;;;;;;;11.30;5.60;;;;;;;26.01;32.60;100331.06;107515;1254;72603;-41
2023/09/29 09:42:47;;;;;;;11.40;5.70;;;;;;;26.14;32.74;100329.39;107493;1254;67598;-42
2023/09/29 09:45:15;;;;;;;9.00;6.00;;;;;;;26.26;33.13;100326.29;107461;1254;71494;-41
2023/09/29 09:47:43;;;;;;;7.80;5.70;;;;;;;26.38;32.40;100321.31;107613;1254;60453;-41
2023/09/29 09:50:11;;;;;;;9.20;6.10;;;;;;;26.49;31.45;100319.24;107452;1254;60026;-41
2023/09/29 09:52:39;;;;;;;11.70;6.30;;;;;;;26.55;30.66;100319.29;107498;1254;72584;-40
2023/09/29 09:55:15;;;;;;;12.30;7.50;;;;;;;26.55;31.10;100313.80;107518;1259;67576;-40
2023/09/29 09:57:45;;;;;;;8.30;6.50;;;;;;;26.59;30.64;100314.25;107608;1257;72730;-40
2023/09/29 10:00:13;;;;;;;;;;;;;;;26.63;31.55;100309.66;107553;1258;60471;-40
2023/09/29 10:02:48;;;;;;;10.80;6.00;;;;;;;26.72;31.74;100309.05;107633;1257;59774;-40
2023/09/29 10:05:23;;;;;;;7.40;5.80;;;;;;;26.83;32.06;100304.09;107514;1252;73620;-40
2023/09/29 10:07:53;;;;;;;6.80;6.00;;;;;;;26.99;31.83;100301.37;107589;1254;66293;-41
2023/09/29 10:10:23;;;;;;;;;;;;;;;27.14;31.85;100301.73;107550;1254;72694;-41
2023/09/29 10:12:55;;;;;;;7.10;5.80;;;;;;;27.26;31.17;100296.71;107524;1254;60402;-41
2023/09/29 10:15:22;;;;;;;9.40;5.60;;;;;;;27.35;30.82;100290.27;107545;1254;60290;-41
2023/09/29 10:17:50;;;;;;;10.00;6.20;;;;;;;27.46;31.17;100293.14;107515;1254;74201;-41
2023/09/29 10:20:24;;;;;;;9.80;6.50;;;;;;;27.59;30.48;100291.96;107493;1254;67878;-41
2023/09/29 10:23:13;;;;;;;10.20;6.20;;;;;;;27.69;29.87;100290.48;107389;1254;167566;-41
2023/09/29 10:26:47;;;;;;;18.10;6.90;;;;;;;27.78;29.57;100281.27;104250;1291;600606;-41
2023/09/29 10:29:38;;;;;;;8.40;6.10;;;;;;;27.86;29.32;100280.29;106600;1267;60042;-41
2023/09/29 10:32:11;;;;;;;10.80;6.70;;;;;;;27.95;29.23;100278.39;106699;1267;59995;-41
2023/09/29 10:34:39;;;;;;;15.20;6.90;;;;;;;28.05;29.22;100275.98;106727;1269;72236;-41
2023/09/29 10:37:06;;;;;;;9.80;6.00;;;;;;;28.15;29.74;100277.73;106623;1267;66277;-41
2023/09/29 10:39:35;;;;;;;11.00;6.40;;;;;;;28.21;29.48;100277.20;106515;1270;203140;-41
2023/09/29 10:42:14;;;;;;;7.50;6.30;;;;;;;28.26;29.02;100272.44;106754;1264;60047;-41
2023/09/29 10:44:52;;;;;;;10.50;6.40;;;;;;;28.37;29.06;100265.80;106815;1263;60059;-41
2023/09/29 10:47:32;;;;;;;7.40;6.40;;;;;;;28.48;29.75;100260.88;106810;1263;72225;-41
2023/09/29 10:50:11;;;;;;;8.60;6.40;;;;;;;28.58;29.49;100257.94;106815;1263;66915;-41
2023/09/29 10:52:40;;;;;;;13.60;7.10;;;;;;;28.65;29.77;100255.94;106793;1264;73874;-41
2023/09/29 10:55:12;;;;;;;10.00;6.40;;;;;;;28.78;29.27;100253.70;106727;1264;59710;-42
2023/09/29 10:57:42;;;;;;;10.10;6.40;;;;;;;28.91;28.61;100252.02;106865;1263;60097;-42
2023/09/29 11:00:14;;;;;;;8.90;6.30;;;;;;;29.01;28.55;100248.73;106821;1268;72192;-42
2023/09/29 11:02:42;;;;;;;8.30;5.90;;;;;;;29.11;28.33;100246.73;106844;1264;67055;-42
2023/09/29 11:05:11;;;;;;;16.00;6.60;;;;;;;29.20;28.05;100242.55;106805;1264;73040;-41
2023/09/29 11:07:47;;;;;;;10.30;5.70;;;;;;;29.31;28.04;100239.30;106825;1270;60056;-41
2023/09/29 11:10:17;;;;;;;9.10;5.90;;;;;;;29.45;27.62;100235.98;106842;1264;59560;-41
2023/09/29 11:12:48;;;;;;;12.50;6.30;;;;;;;29.59;27.44;100237.11;106898;1263;71786;-41
2023/09/29 11:15:17;;;;;;;7.00;5.80;;;;;;;29.72;27.04;100232.18;106846;1264;67605;-42
2023/09/29 11:17:49;;;;;;;6.40;5.60;;;;;;;29.90;26.76;100228.73;106826;1269;72300;-42
2023/09/29 11:20:36;;;;;;;18.20;7.20;;;;;;;30.03;26.74;100223.27;106870;1268;59738;-41